Time;durP1;ratioP1;P1;durP2;ratioP2;P2;SDS_P1;SDS_P2;PMS_P1;PMS_P2;Temp;Humidity;BMP_temperature;BMP_pressure;BME280_temperature;BME280_humidity;BME280_pressure;Samples;Min_cycle;Max_cycle;Signal;HPM_P1;HPM_P2
2023/01/15 00:01:43;;;;;;;4.20;2.25;;;8.70;53.30;;;;;;5072294;28;20524;-67
2023/01/15 00:04:13;;;;;;;3.85;2.63;;;8.70;54.40;;;;;;5064578;28;20200;-67
2023/01/15 00:06:42;;;;;;;3.38;2.22;;;8.70;54.40;;;;;;5072175;28;20197;-67
2023/01/15 00:09:13;;;;;;;3.15;1.73;;;8.60;53.80;;;;;;5059419;28;20653;-67
2023/01/15 00:11:41;;;;;;;3.58;2.22;;;8.50;53.70;;;;;;5052258;28;20243;-67
2023/01/15 00:14:11;;;;;;;3.72;2.10;;;8.50;54.00;;;;;;5062816;28;20534;-67
2023/01/15 00:16:40;;;;;;;3.42;1.90;;;8.50;54.20;;;;;;5071945;28;20198;-67
2023/01/15 00:19:11;;;;;;;3.30;1.65;;;8.50;54.30;;;;;;5060772;28;20280;-67
2023/01/15 00:21:38;;;;;;;3.08;2.00;;;8.60;53.30;;;;;;5052061;28;20779;-67
2023/01/15 00:29:35;;;;;;;4.35;1.85;;;8.70;53.80;;;;;;5054244;28;20745;-67
2023/01/15 00:32:06;;;;;;;4.32;2.47;;;8.80;54.10;;;;;;5051672;28;20602;-67
2023/01/15 00:34:36;;;;;;;9.02;2.38;;;8.70;53.80;;;;;;5067911;28;20213;-67
2023/01/15 00:37:03;;;;;;;4.82;3.15;;;8.80;54.20;;;;;;5071731;28;20197;-66
2023/01/15 00:39:30;;;;;;;5.35;3.70;;;8.80;54.50;;;;;;5056112;28;20194;-67
2023/01/15 00:41:58;;;;;;;3.35;2.20;;;8.80;54.70;;;;;;5051692;28;20272;-67
2023/01/15 00:44:25;;;;;;;4.32;2.50;;;8.90;54.60;;;;;;5060875;28;20278;-67
2023/01/15 00:46:52;;;;;;;3.90;2.28;;;8.90;54.40;;;;;;5053817;28;20194;-66
2023/01/15 00:49:21;;;;;;;3.70;2.20;;;8.80;53.80;;;;;;5051795;28;20197;-66
2023/01/15 00:51:49;;;;;;;4.00;2.10;;;8.70;54.00;;;;;;5052815;28;20267;-66
2023/01/15 00:54:18;;;;;;;3.15;2.30;;;8.70;54.50;;;;;;5052643;28;20194;-67
2023/01/15 00:56:45;;;;;;;3.40;2.13;;;8.70;54.80;;;;;;5071944;28;20204;-67
2023/01/15 00:59:13;;;;;;;3.67;2.00;;;8.80;54.30;;;;;;5070636;28;20188;-69
2023/01/15 01:01:40;;;;;;;3.60;1.80;;;8.80;54.50;;;;;;5051469;28;20627;-68
2023/01/15 01:04:08;;;;;;;5.25;2.00;;;8.80;54.00;;;;;;5051352;28;20251;-68
2023/01/15 01:06:37;;;;;;;5.32;2.95;;;8.70;55.70;;;;;;5070429;28;20185;-67
2023/01/15 01:09:04;;;;;;;3.58;2.00;;;8.70;55.80;;;;;;5071744;28;20271;-68
2023/01/15 01:11:33;;;;;;;3.88;2.00;;;8.70;55.50;;;;;;5052469;28;20193;-67
2023/01/15 01:14:01;;;;;;;7.63;2.95;;;8.70;55.80;;;;;;5051347;28;20656;-67
2023/01/15 01:16:32;;;;;;;3.92;1.80;;;8.70;56.90;;;;;;5070182;28;20577;-67
2023/01/15 01:19:00;;;;;;;4.30;2.17;;;8.70;56.70;;;;;;5075352;28;20208;-67
2023/01/15 01:21:31;;;;;;;5.38;2.05;;;8.80;56.30;;;;;;5056971;28;20235;-67
2023/01/15 01:24:01;;;;;;;8.43;3.45;;;8.80;56.20;;;;;;5055249;28;20232;-67
2023/01/15 01:26:28;;;;;;;4.15;3.00;;;8.80;55.90;;;;;;5071936;28;20196;-67
2023/01/15 01:28:57;;;;;;;7.65;2.50;;;8.80;55.70;;;;;;5075070;28;20197;-67
2023/01/15 01:31:25;;;;;;;3.97;2.10;;;8.80;55.60;;;;;;5055971;28;20183;-67
2023/01/15 01:33:53;;;;;;;3.45;1.92;;;8.80;55.00;;;;;;5055356;28;20206;-67
2023/01/15 01:36:21;;;;;;;4.18;2.22;;;8.80;55.10;;;;;;5072115;28;20190;-67
2023/01/15 01:38:49;;;;;;;6.65;1.90;;;8.80;55.20;;;;;;5074814;28;20239;-67
2023/01/15 01:41:19;;;;;;;3.90;1.90;;;8.80;54.50;;;;;;5057988;28;20225;-67
2023/01/15 01:43:57;;;;;;;3.38;1.88;;;8.90;55.30;;;;;;5054483;28;20204;-67
2023/01/15 01:46:28;;;;;;;3.20;2.17;;;8.80;55.50;;;;;;5071487;28;20271;-68
2023/01/15 01:49:00;;;;;;;2.58;1.80;;;8.80;55.60;;;;;;5074406;28;20201;-67
2023/01/15 01:51:35;;;;;;;3.85;2.00;;;8.80;55.70;;;;;;5054540;28;20190;-68
2023/01/15 01:54:03;;;;;;;6.03;2.30;;;8.80;56.70;;;;;;5055053;28;20221;-67
2023/01/15 01:56:35;;;;;;;3.60;1.80;;;8.80;56.70;;;;;;5074677;28;20193;-67
2023/01/15 01:59:06;;;;;;;3.15;2.00;;;8.80;56.50;;;;;;5073831;28;20239;-68
2023/01/15 02:01:33;;;;;;;5.30;2.00;;;8.80;56.60;;;;;;5054586;28;20247;-67
2023/01/15 02:04:05;;;;;;;3.70;1.90;;;8.80;56.90;;;;;;5066947;28;20203;-68
2023/01/15 02:06:32;;;;;;;3.33;2.05;;;8.70;57.20;;;;;;5074400;28;20197;-68
2023/01/15 02:09:00;;;;;;;4.05;2.22;;;8.80;57.20;;;;;;5072799;28;20198;-68
2023/01/15 02:11:29;;;;;;;5.25;3.10;;;8.80;57.30;;;;;;5073642;28;20219;-68
2023/01/15 02:14:04;;;;;;;5.15;2.70;;;8.80;57.40;;;;;;5054566;28;20213;-68
2023/01/15 02:16:36;;;;;;;3.15;2.13;;;8.80;57.70;;;;;;5054283;28;20270;-68
2023/01/15 02:19:14;;;;;;;4.85;2.65;;;8.70;57.90;;;;;;5074317;28;20193;-67
2023/01/15 02:21:50;;;;;;;3.42;2.25;;;8.70;58.40;;;;;;5072543;28;20582;-67
2023/01/15 02:24:24;;;;;;;3.00;2.00;;;8.70;58.70;;;;;;5055208;28;20782;-67
2023/01/15 02:27:08;;;;;;;4.20;2.03;;;8.70;59.00;;;;;;5073849;28;20205;-67
2023/01/15 02:29:49;;;;;;;2.72;1.85;;;8.60;59.60;;;;;;5070515;28;20193;-67
2023/01/15 02:32:23;;;;;;;3.03;1.90;;;8.60;59.70;;;;;;5071933;28;20649;-67
2023/01/15 02:34:54;;;;;;;3.55;1.92;;;8.50;60.00;;;;;;5069213;28;20194;-67
2023/01/15 02:37:29;;;;;;;3.45;2.10;;;8.50;60.20;;;;;;5054198;28;20196;-67
2023/01/15 02:40:03;;;;;;;3.63;2.70;;;8.50;60.70;;;;;;5058275;28;20366;-67
2023/01/15 02:42:36;;;;;;;3.90;2.40;;;8.40;60.80;;;;;;5073901;28;20259;-67
2023/01/15 02:45:06;;;;;;;4.30;2.22;;;8.40;60.70;;;;;;5067885;28;20217;-67
2023/01/15 02:47:38;;;;;;;4.03;2.00;;;8.30;60.50;;;;;;5053764;28;20193;-67
2023/01/15 02:50:11;;;;;;;3.88;2.10;;;8.30;62.50;;;;;;5053885;28;20186;-67
2023/01/15 02:52:43;;;;;;;4.10;2.17;;;8.30;61.50;;;;;;5053682;28;20193;-67
2023/01/15 02:55:17;;;;;;;4.28;1.80;;;8.30;61.90;;;;;;5058355;28;20272;-67
2023/01/15 02:57:48;;;;;;;3.63;2.20;;;8.20;62.30;;;;;;5073474;28;20251;-67
2023/01/15 03:00:19;;;;;;;4.35;1.75;;;8.20;62.90;;;;;;5067741;28;20219;-67
2023/01/15 03:02:51;;;;;;;4.20;2.10;;;8.20;62.20;;;;;;5053701;28;20236;-67
2023/01/15 03:05:25;;;;;;;3.28;1.80;;;8.20;62.20;;;;;;5058048;28;20180;-67
2023/01/15 03:07:57;;;;;;;4.05;2.10;;;8.10;63.10;;;;;;5073644;28;20238;-67
2023/01/15 03:10:36;;;;;;;3.20;1.83;;;8.00;62.80;;;;;;5067395;28;20190;-67
2023/01/15 03:13:07;;;;;;;4.13;2.08;;;8.00;63.00;;;;;;5053409;28;20661;-67
2023/01/15 03:18:32;;;;;;;3.80;2.20;;;8.00;63.30;;;;;;5073485;28;20195;-67
2023/01/15 03:21:05;;;;;;;4.43;2.47;;;8.00;63.10;;;;;;5061843;28;20208;-67
2023/01/15 03:23:39;;;;;;;5.15;3.17;;;8.00;63.50;;;;;;5053104;28;20254;-67
2023/01/15 03:26:07;;;;;;;5.82;3.35;;;8.00;63.50;;;;;;5063657;28;20211;-67
2023/01/15 03:28:38;;;;;;;5.22;2.60;;;8.00;63.20;;;;;;5073151;28;20191;-67
2023/01/15 03:31:06;;;;;;;5.55;2.70;;;8.00;62.60;;;;;;5061987;28;20236;-67
2023/01/15 03:33:35;;;;;;;4.82;2.63;;;8.10;62.40;;;;;;5053095;28;20217;-67
2023/01/15 03:36:03;;;;;;;6.60;3.13;;;8.10;62.80;;;;;;5062032;28;20261;-68
2023/01/15 03:38:37;;;;;;;5.28;3.17;;;8.20;63.10;;;;;;5072626;28;20721;-67
2023/01/15 03:41:15;;;;;;;5.10;2.63;;;8.20;63.70;;;;;;5063082;28;20250;-67
2023/01/15 03:43:51;;;;;;;4.45;2.40;;;8.20;64.10;;;;;;5052374;28;20232;-67
2023/01/15 03:46:36;;;;;;;3.65;2.40;;;8.20;62.90;;;;;;5063032;28;20241;-67
2023/01/15 03:49:11;;;;;;;3.97;2.25;;;8.10;62.40;;;;;;5072528;28;20198;-67
2023/01/15 03:51:44;;;;;;;4.07;2.08;;;8.10;62.80;;;;;;5070620;28;20617;-67
2023/01/15 03:54:19;;;;;;;4.63;2.28;;;8.10;62.80;;;;;;5072739;28;20234;-67
2023/01/15 03:56:54;;;;;;;3.45;2.00;;;8.10;62.60;;;;;;5058805;28;20192;-67
2023/01/15 03:59:30;;;;;;;3.35;1.75;;;8.10;62.50;;;;;;5052606;28;20196;-67
2023/01/15 04:01:58;;;;;;;2.97;1.50;;;8.10;61.80;;;;;;5066324;28;20673;-67
2023/01/15 04:04:31;;;;;;;3.95;2.00;;;8.10;62.10;;;;;;5072531;28;20274;-67
2023/01/15 04:07:01;;;;;;;4.57;2.20;;;8.10;62.50;;;;;;5058458;28;20185;-67
2023/01/15 04:09:28;;;;;;;5.38;2.70;;;8.10;62.40;;;;;;5052486;28;20227;-67
2023/01/15 04:11:59;;;;;;;4.70;2.80;;;8.10;62.20;;;;;;5065146;28;20192;-67
2023/01/15 04:14:30;;;;;;;4.32;2.40;;;8.00;62.10;;;;;;5072575;28;20199;-67
2023/01/15 04:16:58;;;;;;;4.40;2.30;;;8.00;62.00;;;;;;5059237;28;20196;-67
2023/01/15 04:19:25;;;;;;;4.35;2.70;;;8.00;62.30;;;;;;5052323;28;20241;-67
2023/01/15 04:21:53;;;;;;;3.65;2.10;;;8.00;62.60;;;;;;5063705;28;20227;-68
2023/01/15 04:24:20;;;;;;;5.03;2.15;;;8.00;62.80;;;;;;5072309;28;20220;-67
2023/01/15 04:26:47;;;;;;;3.72;2.17;;;8.10;63.00;;;;;;5061714;28;20194;-67
2023/01/15 04:29:15;;;;;;;3.00;1.50;;;8.00;63.10;;;;;;5052114;28;20221;-67
2023/01/15 04:31:51;;;;;;;3.00;1.92;;;8.10;63.20;;;;;;5060827;28;20183;-67
2023/01/15 04:34:19;;;;;;;3.67;2.67;;;8.10;63.30;;;;;;5072170;28;20315;-67
2023/01/15 04:36:47;;;;;;;4.57;3.00;;;8.10;63.60;;;;;;5062815;28;20730;-67
2023/01/15 04:39:16;;;;;;;4.63;3.10;;;8.00;63.60;;;;;;5052027;28;20197;-67
2023/01/15 04:44:33;;;;;;;5.35;2.90;;;7.90;64.70;;;;;;5072061;28;20231;-68
2023/01/15 04:47:02;;;;;;;5.15;2.58;;;7.90;64.60;;;;;;5059705;28;20194;-68
2023/01/15 04:49:29;;;;;;;4.18;1.70;;;7.90;64.80;;;;;;5052001;28;20197;-68
2023/01/15 04:51:57;;;;;;;3.17;2.42;;;8.00;65.10;;;;;;5061451;28;20520;-67
2023/01/15 04:54:29;;;;;;;3.95;2.40;;;7.90;65.00;;;;;;5072064;28;20190;-66
2023/01/15 04:56:58;;;;;;;3.65;2.03;;;7.90;65.10;;;;;;5061383;28;20189;-67
2023/01/15 04:59:27;;;;;;;3.25;1.48;;;8.00;65.40;;;;;;5052101;28;20189;-67
2023/01/15 05:01:57;;;;;;;3.90;2.13;;;8.00;65.40;;;;;;5060928;28;20193;-67
2023/01/15 05:04:26;;;;;;;3.03;1.80;;;7.90;65.80;;;;;;5071768;28;20220;-67
2023/01/15 05:06:56;;;;;;;3.63;2.10;;;7.90;65.90;;;;;;5061613;28;20203;-67
2023/01/15 05:09:23;;;;;;;3.05;2.20;;;7.90;66.90;;;;;;5051905;28;20201;-67
2023/01/15 05:11:50;;;;;;;3.92;2.10;;;7.90;67.10;;;;;;5060724;28;20188;-67
2023/01/15 05:14:19;;;;;;;7.03;2.53;;;7.90;67.30;;;;;;5072187;28;20196;-66
2023/01/15 05:16:47;;;;;;;4.35;2.35;;;7.90;67.40;;;;;;5063552;28;20193;-67
2023/01/15 05:19:14;;;;;;;4.13;2.47;;;7.90;68.00;;;;;;5051581;28;20651;-67
2023/01/15 05:21:47;;;;;;;5.50;2.95;;;7.80;68.10;;;;;;5058371;28;20285;-67
2023/01/15 05:24:17;;;;;;;5.20;2.78;;;7.80;68.30;;;;;;5071815;28;20317;-67
2023/01/15 05:26:44;;;;;;;4.75;2.72;;;7.70;68.90;;;;;;5065095;28;20194;-67
2023/01/15 05:29:14;;;;;;;5.32;2.65;;;7.60;69.20;;;;;;5051442;28;20219;-67
2023/01/15 05:31:44;;;;;;;3.85;2.08;;;7.70;69.00;;;;;;5058632;28;20651;-67
2023/01/15 05:34:11;;;;;;;3.83;2.65;;;7.60;68.90;;;;;;5071635;28;20270;-67
2023/01/15 05:36:42;;;;;;;3.80;1.90;;;7.60;69.00;;;;;;5064614;28;20188;-67
2023/01/15 05:39:11;;;;;;;5.53;2.67;;;7.70;69.40;;;;;;5051609;28;20644;-67
2023/01/15 05:41:50;;;;;;;3.88;2.05;;;7.60;68.90;;;;;;5053150;28;20206;-67
2023/01/15 05:44:19;;;;;;;2.95;1.70;;;7.60;69.40;;;;;;5059827;28;20276;-67
2023/01/15 05:46:47;;;;;;;3.38;1.40;;;7.50;69.40;;;;;;5051478;28;20199;-67
2023/01/15 05:49:17;;;;;;;442.05;152.38;;;7.50;69.40;;;;;;5056885;28;20191;-67
2023/01/15 05:51:46;;;;;;;51.05;20.38;;;7.50;69.80;;;;;;5071566;28;20206;-67
2023/01/15 05:54:21;;;;;;;12.23;4.97;;;7.60;69.60;;;;;;5069466;28;20235;-66
2023/01/15 05:56:54;;;;;;;4.20;1.85;;;7.60;69.80;;;;;;5071539;28;20230;-66
2023/01/15 05:59:24;;;;;;;3.00;1.67;;;7.70;70.40;;;;;;5065774;28;20211;-67
2023/01/15 06:01:52;;;;;;;2.20;1.13;;;7.80;71.40;;;;;;5052046;28;20205;-67
2023/01/15 06:04:20;;;;;;;2.70;1.65;;;8.00;73.00;;;;;;5059405;28;20218;-67
2023/01/15 06:06:50;;;;;;;2.88;1.50;;;8.10;74.30;;;;;;5075020;28;20268;-67
2023/01/15 06:09:21;;;;;;;2.38;1.23;;;8.40;75.70;;;;;;5070415;28;20190;-67
2023/01/15 06:11:54;;;;;;;1.88;0.70;;;8.60;76.20;;;;;;5054920;28;20197;-67
2023/01/15 06:14:25;;;;;;;1.77;0.80;;;8.70;78.10;;;;;;5055079;28;20189;-67
2023/01/15 06:16:53;;;;;;;1.92;0.70;;;8.90;78.10;;;;;;5054845;28;20202;-67
2023/01/15 06:19:21;;;;;;;1.60;0.70;;;9.00;79.60;;;;;;5057659;28;20208;-67
2023/01/15 06:21:52;;;;;;;1.98;0.80;;;9.20;79.80;;;;;;5075008;28;20192;-67
2023/01/15 06:24:19;;;;;;;2.20;1.00;;;9.40;79.80;;;;;;5071548;28;20831;-67
2023/01/15 06:26:46;;;;;;;1.83;0.73;;;9.50;80.30;;;;;;5054875;28;20237;-67
2023/01/15 06:29:17;;;;;;;1.70;0.90;;;9.70;79.60;;;;;;5055312;28;20198;-67
2023/01/15 06:31:45;;;;;;;1.80;0.80;;;9.80;79.20;;;;;;5074343;28;20190;-67
2023/01/15 06:34:14;;;;;;;1.67;0.90;;;9.90;80.00;;;;;;5073464;28;20189;-67
2023/01/15 06:36:42;;;;;;;1.80;0.85;;;10.00;78.60;;;;;;5054271;28;20189;-66
2023/01/15 06:39:11;;;;;;;1.70;0.80;;;10.20;78.50;;;;;;5055039;28;20197;-67
2023/01/15 06:47:21;;;;;;;1.98;0.70;;;10.40;78.00;;;;;;5054280;28;20194;-67
2023/01/15 06:49:49;;;;;;;1.90;0.65;;;10.50;77.50;;;;;;5067038;28;20201;-67
2023/01/15 06:52:18;;;;;;;2.10;0.90;;;10.60;77.40;;;;;;5074095;28;20725;-67
2023/01/15 06:54:47;;;;;;;1.95;1.00;;;10.70;77.00;;;;;;5061320;28;20197;-67
2023/01/15 06:57:14;;;;;;;3.38;2.55;;;10.70;76.50;;;;;;5053972;28;20198;-67
2023/01/15 06:59:43;;;;;;;3.55;2.10;;;10.80;76.40;;;;;;5064282;28;20235;-67
2023/01/15 07:02:16;;;;;;;2.78;1.10;;;10.80;76.20;;;;;;5058481;28;20195;-67
2023/01/15 07:04:44;;;;;;;2.15;1.13;;;10.80;76.60;;;;;;5064392;28;20228;-67
2023/01/15 07:07:11;;;;;;;3.40;1.00;;;10.80;76.30;;;;;;5073652;28;20247;-67
2023/01/15 07:09:38;;;;;;;1.60;0.70;;;10.80;76.80;;;;;;5063421;28;20222;-67
2023/01/15 07:12:07;;;;;;;3.05;0.98;;;10.80;77.10;;;;;;5053741;28;20240;-67
2023/01/15 07:14:39;;;;;;;6.43;1.80;;;10.90;77.40;;;;;;5060777;28;20178;-67
2023/01/15 07:17:10;;;;;;;1.98;0.80;;;10.90;78.80;;;;;;5064612;28;20190;-67
2023/01/15 07:19:38;;;;;;;2.10;0.90;;;10.90;78.30;;;;;;5053392;28;20244;-67
2023/01/15 07:22:05;;;;;;;2.90;1.27;;;10.90;78.10;;;;;;5060516;28;20186;-67
2023/01/15 07:24:33;;;;;;;2.95;1.13;;;11.00;78.60;;;;;;5073404;28;20257;-67
2023/01/15 07:27:00;;;;;;;2.05;0.77;;;11.00;78.50;;;;;;5066623;28;20183;-67
2023/01/15 07:29:30;;;;;;;1.70;0.80;;;11.00;78.70;;;;;;5056634;28;20197;-67
2023/01/15 07:31:58;;;;;;;2.03;0.80;;;11.00;78.40;;;;;;5069691;28;20189;-67
2023/01/15 07:34:25;;;;;;;1.70;0.70;;;11.10;78.40;;;;;;5052607;28;20193;-67
2023/01/15 07:36:52;;;;;;;1.60;0.70;;;11.10;78.30;;;;;;5053567;28;20590;-67
2023/01/15 07:39:24;;;;;;;1.73;0.70;;;11.10;78.50;;;;;;5052638;28;20197;-68
2023/01/15 07:50:11;;;;;;;2.67;1.10;;;11.20;78.60;;;;;;5067485;28;20758;-67
2023/01/15 07:52:39;;;;;;;2.13;1.08;;;11.20;78.50;;;;;;5068819;28;20678;-67
2023/01/15 07:55:07;;;;;;;1.95;0.90;;;11.30;78.00;;;;;;5069024;28;20186;-67
2023/01/15 07:57:34;;;;;;;1.70;0.75;;;11.30;77.80;;;;;;5062049;28;20608;-68
2023/01/15 08:00:05;;;;;;;2.00;0.70;;;11.30;78.00;;;;;;5052157;28;20194;-67
2023/01/15 08:02:32;;;;;;;2.40;1.35;;;11.40;77.70;;;;;;5061672;28;20213;-68
2023/01/15 08:05:00;;;;;;;1.63;0.70;;;11.40;77.00;;;;;;5052223;28;20226;-67
2023/01/15 08:07:27;;;;;;;1.80;0.80;;;11.50;76.50;;;;;;5054897;28;20206;-67
2023/01/15 08:09:54;;;;;;;2.70;0.90;;;11.50;76.20;;;;;;5057134;28;20187;-67
2023/01/15 08:15:12;;;;;;;1.70;0.90;;;11.60;75.50;;;;;;5067956;28;20196;-67
2023/01/15 08:17:41;;;;;;;1.80;0.70;;;11.60;74.60;;;;;;5062331;28;20236;-67
2023/01/15 08:20:10;;;;;;;2.50;1.23;;;11.60;73.70;;;;;;5058870;28;20272;-67
2023/01/15 08:22:40;;;;;;;7.00;4.18;;;11.70;74.00;;;;;;5051424;28;20190;-66
2023/01/15 08:25:09;;;;;;;1.95;0.98;;;11.80;73.80;;;;;;5064643;28;20230;-68
2023/01/15 08:27:36;;;;;;;1.88;1.00;;;11.80;72.50;;;;;;5069258;28;20652;-67
2023/01/15 08:30:05;;;;;;;2.50;1.10;;;11.90;72.40;;;;;;5065914;28;20186;-67
2023/01/15 08:32:33;;;;;;;12.50;8.82;;;11.90;71.80;;;;;;5050864;28;20632;-69
2023/01/15 08:35:00;;;;;;;11.90;10.70;;;12.00;71.50;;;;;;5051188;28;20255;-67
2023/01/15 08:37:28;;;;;;;14.77;9.50;;;12.00;71.10;;;;;;5051451;28;20237;-67
2023/01/15 08:39:55;;;;;;;24.48;12.10;;;12.00;70.70;;;;;;5051775;28;20523;-68
2023/01/15 08:42:23;;;;;;;6.37;3.47;;;12.10;70.40;;;;;;5051483;28;20194;-68
2023/01/15 08:44:50;;;;;;;3.10;1.80;;;12.10;70.10;;;;;;5053340;28;20498;-68
2023/01/15 08:47:18;;;;;;;2.87;2.00;;;12.20;69.70;;;;;;5068734;28;20788;-67
2023/01/15 08:49:47;;;;;;;14.77;8.40;;;12.30;69.80;;;;;;5069165;28;20467;-68
2023/01/15 08:52:16;;;;;;;8.38;5.00;;;12.30;69.60;;;;;;5068274;28;20443;-67
2023/01/15 08:54:43;;;;;;;2.60;1.70;;;12.20;69.60;;;;;;5050856;28;20603;-68
2023/01/15 08:57:11;;;;;;;3.20;1.43;;;12.20;69.10;;;;;;5052795;28;20533;-67
2023/01/15 08:59:38;;;;;;;7.80;5.63;;;12.20;68.50;;;;;;5050909;28;20443;-68
2023/01/15 09:02:05;;;;;;;13.10;8.57;;;12.20;67.90;;;;;;5064120;28;20482;-68
2023/01/15 09:04:32;;;;;;;32.63;21.00;;;12.20;68.40;;;;;;5068518;28;20552;-68
2023/01/15 09:07:01;;;;;;;12.27;8.90;;;12.20;68.30;;;;;;5068598;28;20515;-67
2023/01/15 09:09:27;;;;;;;10.83;7.53;;;12.20;66.30;;;;;;5068998;28;20444;-67
2023/01/15 09:11:54;;;;;;;2.80;1.50;;;12.20;66.10;;;;;;5055941;28;20433;-68
2023/01/15 09:14:23;;;;;;;2.00;1.00;;;12.10;65.90;;;;;;5062279;28;20860;-68
2023/01/15 09:16:50;;;;;;;2.75;1.55;;;12.20;65.70;;;;;;5053999;28;20452;-69
2023/01/15 09:19:18;;;;;;;2.00;1.00;;;12.30;65.40;;;;;;5066618;28;20284;-67
2023/01/15 09:21:45;;;;;;;2.37;0.77;;;12.30;65.60;;;;;;5064482;28;20810;-67
2023/01/15 09:24:13;;;;;;;2.58;1.27;;;12.30;65.60;;;;;;5050890;28;20480;-68
2023/01/15 09:26:41;;;;;;;3.10;1.07;;;12.30;64.80;;;;;;5066831;28;20228;-67
2023/01/15 09:29:10;;;;;;;2.10;1.00;;;12.40;64.60;;;;;;5069060;28;20478;-68
2023/01/15 09:31:38;;;;;;;3.30;1.70;;;12.40;63.90;;;;;;5054334;28;20452;-68
2023/01/15 09:34:05;;;;;;;2.43;1.20;;;12.40;64.10;;;;;;5051327;28;20463;-67
2023/01/15 09:36:33;;;;;;;2.00;0.90;;;12.50;64.10;;;;;;5055248;28;20444;-67
2023/01/15 09:39:06;;;;;;;3.07;1.27;;;12.50;63.50;;;;;;5054925;28;20444;-68
2023/01/15 09:42:08;;;;;;;2.13;0.83;;;12.50;63.40;;;;;;5057785;28;20807;-68
2023/01/15 09:44:49;;;;;;;3.37;1.27;;;12.60;63.50;;;;;;5055655;28;20743;-68
2023/01/15 09:47:22;;;;;;;1.60;0.60;;;12.60;63.10;;;;;;5065226;28;20923;-68
2023/01/15 09:50:10;;;;;;;4.07;0.90;;;12.60;62.70;;;;;;5071671;28;20997;-67
2023/01/15 09:52:54;;;;;;;2.30;0.80;;;12.60;62.30;;;;;;5070493;28;20609;-68
2023/01/15 09:55:27;;;;;;;2.50;0.80;;;12.60;60.10;;;;;;5071134;28;20486;-68
2023/01/15 09:57:59;;;;;;;2.60;1.23;;;12.70;59.90;;;;;;5069241;28;20447;-68
2023/01/15 10:00:29;;;;;;;1.70;0.70;;;12.70;59.60;;;;;;5054347;28;20439;-68
2023/01/15 10:03:04;;;;;;;2.00;0.87;;;12.70;59.00;;;;;;5066422;28;20573;-68
2023/01/15 10:05:45;;;;;;;1.73;0.67;;;12.80;58.70;;;;;;5071298;28;20489;-68
2023/01/15 10:08:16;;;;;;;2.27;0.90;;;12.80;58.40;;;;;;5071328;28;20435;-67
2023/01/15 10:10:47;;;;;;;2.67;1.10;;;12.90;58.20;;;;;;5071644;28;20450;-68
2023/01/15 10:13:26;;;;;;;1.50;0.60;;;13.00;58.10;;;;;;5070349;28;20546;-67
2023/01/15 10:15:55;;;;;;;1.80;0.80;;;13.00;57.00;;;;;;5071609;28;20447;-67
2023/01/15 10:18:24;;;;;;;1.63;0.80;;;13.00;56.40;;;;;;5069378;28;20771;-67
2023/01/15 10:21:13;;;;;;;1.60;0.70;;;13.10;56.00;;;;;;5072132;28;20467;-67
2023/01/15 10:23:49;;;;;;;2.33;1.10;;;13.10;56.10;;;;;;5057514;28;20495;-67
2023/01/15 10:26:30;;;;;;;1.50;0.60;;;13.20;55.50;;;;;;5071124;28;20478;-67
2023/01/15 10:29:06;;;;;;;2.00;0.70;;;13.30;55.90;;;;;;5060075;28;21009;-67
2023/01/15 10:31:51;;;;;;;2.17;0.80;;;13.50;55.70;;;;;;5055181;28;20817;-67
2023/01/15 10:34:54;;;;;;;2.30;0.67;;;13.60;55.40;;;;;;5070936;28;20446;-67
2023/01/15 10:37:28;;;;;;;1.57;0.60;;;13.70;55.30;;;;;;5067983;28;20438;-68
2023/01/15 10:40:24;;;;;;;2.37;0.97;;;13.60;56.20;;;;;;5062017;28;20498;-68
2023/01/15 10:43:01;;;;;;;2.40;0.90;;;13.50;57.90;;;;;;5054200;28;20441;-67
2023/01/15 10:45:34;;;;;;;1.60;0.60;;;13.40;59.70;;;;;;5057497;28;20488;-68
2023/01/15 10:48:06;;;;;;;2.20;0.70;;;13.10;60.50;;;;;;5053045;28;20425;-67
2023/01/15 10:50:34;;;;;;;1.50;0.60;;;12.80;61.10;;;;;;5068876;28;20436;-68
2023/01/15 10:53:07;;;;;;;1.65;0.65;;;12.40;61.40;;;;;;5057346;28;20556;-67
2023/01/15 10:55:38;;;;;;;1.50;0.50;;;12.20;61.80;;;;;;5068750;28;20202;-67
2023/01/15 10:58:14;;;;;;;1.52;0.60;;;11.80;62.30;;;;;;5067765;28;20251;-67
2023/01/15 11:00:50;;;;;;;1.60;0.70;;;11.50;63.00;;;;;;5067802;28;20542;-67
2023/01/15 11:03:23;;;;;;;1.80;0.70;;;11.40;63.60;;;;;;5070873;28;20181;-67
2023/01/15 11:05:50;;;;;;;1.50;0.60;;;11.20;63.90;;;;;;5053635;28;20222;-67
2023/01/15 11:08:25;;;;;;;1.90;0.90;;;11.10;64.20;;;;;;5053900;28;20198;-68
2023/01/15 11:10:53;;;;;;;1.60;0.60;;;10.80;64.60;;;;;;5070375;28;20288;-67
2023/01/15 11:19:39;;;;;;;1.50;0.50;;;10.30;68.30;;;;;;5018801;28;20202;-67
2023/01/15 11:22:12;;;;;;;3.50;0.70;;;10.10;69.80;;;;;;5060284;28;20246;-67
2023/01/15 11:24:46;;;;;;;1.50;0.68;;;10.00;70.50;;;;;;5064924;28;20703;-67
2023/01/15 11:27:17;;;;;;;1.70;0.60;;;10.00;71.60;;;;;;5055493;28;20251;-67
2023/01/15 11:29:45;;;;;;;1.70;0.73;;;9.90;72.60;;;;;;5059697;28;20186;-68
2023/01/15 11:32:29;;;;;;;1.70;0.70;;;9.80;74.10;;;;;;5066887;28;20192;-68
2023/01/15 11:34:59;;;;;;;1.70;0.70;;;9.70;74.40;;;;;;5054931;28;20196;-67
2023/01/15 11:37:27;;;;;;;2.50;1.00;;;9.60;75.00;;;;;;5068786;28;20189;-68
2023/01/15 11:39:56;;;;;;;3.53;0.73;;;9.50;75.00;;;;;;5064580;28;20230;-69
2023/01/15 11:51:03;;;;;;;2.50;0.70;;;9.30;76.20;;;;;;5064072;28;20205;-68
2023/01/15 11:53:35;;;;;;;1.63;0.60;;;9.10;75.80;;;;;;5060676;28;20192;-68
2023/01/15 11:56:08;;;;;;;2.05;0.60;;;8.90;76.20;;;;;;5053508;28;20222;-68
2023/01/15 11:58:45;;;;;;;1.88;0.68;;;8.90;76.50;;;;;;5053537;28;20200;-68
2023/01/15 12:01:16;;;;;;;1.50;0.60;;;8.80;77.00;;;;;;5054670;28;20185;-67
2023/01/15 12:03:45;;;;;;;1.90;0.90;;;8.80;77.40;;;;;;5052111;28;20594;-67
2023/01/15 12:06:16;;;;;;;2.13;0.70;;;8.70;77.20;;;;;;5068973;28;20626;-68
2023/01/15 12:08:51;;;;;;;2.20;0.80;;;8.70;77.50;;;;;;5069300;28;20200;-68
2023/01/15 12:11:37;;;;;;;1.60;0.70;;;8.70;77.90;;;;;;5053247;28;20192;-68
2023/01/15 12:14:27;;;;;;;2.75;0.90;;;8.70;77.60;;;;;;5054703;28;20187;-68
2023/01/15 12:17:02;;;;;;;1.85;0.85;;;8.60;77.20;;;;;;5054856;28;20285;-68
2023/01/15 12:19:35;;;;;;;1.80;0.90;;;8.50;77.60;;;;;;5052153;28;20211;-68
2023/01/15 12:22:15;;;;;;;1.63;0.80;;;8.60;77.60;;;;;;5066079;28;20925;-68
2023/01/15 12:25:11;;;;;;;1.90;0.80;;;8.50;78.00;;;;;;5063183;28;20197;-68
2023/01/15 12:28:07;;;;;;;1.70;0.60;;;8.50;78.00;;;;;;5058485;28;20232;-68
2023/01/15 12:30:48;;;;;;;1.80;0.90;;;8.40;78.60;;;;;;5067460;28;20199;-68
2023/01/15 12:33:24;;;;;;;2.53;0.90;;;8.40;79.10;;;;;;5060580;28;20702;-68
2023/01/15 12:35:59;;;;;;;3.78;1.40;;;8.50;79.60;;;;;;5054064;28;20258;-67
2023/01/15 12:38:40;;;;;;;2.50;0.80;;;8.50;79.80;;;;;;5051596;28;20190;-68
2023/01/15 12:41:12;;;;;;;2.65;0.80;;;8.50;79.90;;;;;;5051440;28;20193;-67
2023/01/15 12:46:30;;;;;;;1.90;0.80;;;8.60;80.20;;;;;;5031165;28;20546;-68
2023/01/15 12:49:03;;;;;;;2.03;0.80;;;8.60;80.30;;;;;;5043686;28;20240;-67
2023/01/15 12:51:37;;;;;;;1.77;0.88;;;8.50;80.30;;;;;;5034581;28;20201;-67
2023/01/15 12:54:08;;;;;;;3.65;1.20;;;8.50;80.00;;;;;;5036249;28;20216;-67
2023/01/15 12:56:47;;;;;;;2.22;0.90;;;8.50;80.10;;;;;;5038584;28;20657;-68
2023/01/15 12:59:32;;;;;;;1.70;0.63;;;8.50;80.60;;;;;;5031928;28;20216;-68
2023/01/15 13:02:11;;;;;;;1.88;0.73;;;8.50;80.00;;;;;;5031625;28;20533;-68
2023/01/15 13:04:45;;;;;;;1.65;0.60;;;8.50;80.10;;;;;;5035401;28;20191;-68
2023/01/15 13:07:19;;;;;;;2.15;0.90;;;8.40;79.50;;;;;;5038899;28;20218;-68
2023/01/15 13:09:55;;;;;;;2.35;0.80;;;8.40;79.20;;;;;;5046898;28;20587;-68
2023/01/15 13:12:22;;;;;;;1.50;0.60;;;8.30;79.10;;;;;;5044061;28;20551;-68
2023/01/15 13:14:50;;;;;;;1.70;0.60;;;8.30;78.80;;;;;;5051830;28;20557;-68
2023/01/15 13:17:26;;;;;;;1.50;0.60;;;8.20;79.10;;;;;;5034525;28;20198;-67
2023/01/15 13:20:23;;;;;;;2.22;0.70;;;8.10;78.30;;;;;;5050487;28;20200;-68
2023/01/15 13:22:58;;;;;;;1.80;0.55;;;8.10;78.50;;;;;;5041263;28;20259;-67
2023/01/15 13:25:40;;;;;;;1.60;0.70;;;8.00;78.70;;;;;;5040016;28;20214;-67
2023/01/15 13:28:20;;;;;;;1.70;0.70;;;8.00;78.80;;;;;;5051373;28;20192;-67
2023/01/15 13:31:01;;;;;;;2.00;0.70;;;8.00;79.40;;;;;;5052123;28;20717;-67
2023/01/15 13:33:33;;;;;;;1.60;0.70;;;7.90;79.30;;;;;;5034328;28;20200;-67
2023/01/15 13:36:09;;;;;;;1.70;0.60;;;7.90;79.30;;;;;;5049984;28;20189;-68
2023/01/15 13:38:41;;;;;;;1.67;0.68;;;7.90;79.40;;;;;;5034261;28;20211;-68
2023/01/15 13:41:09;;;;;;;1.85;0.70;;;7.80;78.70;;;;;;5049941;28;20206;-68
2023/01/15 13:43:39;;;;;;;1.60;0.60;;;7.70;79.10;;;;;;5052065;28;20298;-68
2023/01/15 13:46:10;;;;;;;1.70;0.70;;;7.70;79.30;;;;;;5037842;28;20221;-68
2023/01/15 13:48:44;;;;;;;2.28;0.77;;;7.70;79.70;;;;;;5034257;28;20203;-68
2023/01/15 13:51:26;;;;;;;1.50;0.60;;;7.70;79.60;;;;;;5033423;28;20198;-68
2023/01/15 13:53:57;;;;;;;1.60;0.70;;;7.70;79.90;;;;;;5034087;28;20197;-69
2023/01/15 13:56:29;;;;;;;1.60;0.60;;;7.60;80.00;;;;;;5033671;28;20199;-69
2023/01/15 13:58:58;;;;;;;1.50;0.70;;;7.70;79.80;;;;;;5048798;28;20234;-68
2023/01/15 14:01:32;;;;;;;1.80;0.77;;;7.70;79.40;;;;;;5049585;28;20204;-68